sensor_id;sensor_type;location;lat;lon;timestamp;P1;durP1;ratioP1;P2;durP2;ratioP2
76409;SDS011;65238;42.662;23.280;2024-03-25T00:02:05;1.50;;;0.35;;
76409;SDS011;65238;42.662;23.280;2024-03-25T00:04:31;1.20;;;0.40;;
76409;SDS011;65238;42.662;23.280;2024-03-25T00:06:56;2.35;;;0.32;;
76409;SDS011;65238;42.662;23.280;2024-03-25T00:09:23;0.90;;;0.52;;
76409;SDS011;65238;42.662;23.280;2024-03-25T00:11:49;3.05;;;1.10;;
76409;SDS011;65238;42.662;23.280;2024-03-25T00:14:19;4.85;;;1.23;;
76409;SDS011;65238;42.662;23.280;2024-03-25T00:16:47;3.38;;;1.67;;
76409;SDS011;65238;42.662;23.280;2024-03-25T00:19:12;4.95;;;2.25;;
76409;SDS011;65238;42.662;23.280;2024-03-25T00:21:38;3.55;;;1.58;;
76409;SDS011;65238;42.662;23.280;2024-03-25T00:24:03;2.15;;;0.88;;
76409;SDS011;65238;42.662;23.280;2024-03-25T00:26:29;3.58;;;1.50;;
76409;SDS011;65238;42.662;23.280;2024-03-25T00:28:54;2.13;;;1.13;;
76409;SDS011;65238;42.662;23.280;2024-03-25T00:31:20;3.28;;;1.35;;
76409;SDS011;65238;42.662;23.280;2024-03-25T00:33:45;1.80;;;0.85;;
76409;SDS011;65238;42.662;23.280;2024-03-25T00:36:10;2.15;;;1.23;;
76409;SDS011;65238;42.662;23.280;2024-03-25T00:38:36;0.63;;;0.40;;
76409;SDS011;65238;42.662;23.280;2024-03-25T00:41:01;2.80;;;1.20;;
76409;SDS011;65238;42.662;23.280;2024-03-25T00:43:27;3.08;;;0.88;;
76409;SDS011;65238;42.662;23.280;2024-03-25T00:45:53;3.03;;;1.33;;
76409;SDS011;65238;42.662;23.280;2024-03-25T00:48:18;3.53;;;1.50;;
76409;SDS011;65238;42.662;23.280;2024-03-25T00:50:43;1.17;;;0.60;;
76409;SDS011;65238;42.662;23.280;2024-03-25T00:53:09;0.82;;;0.50;;
76409;SDS011;65238;42.662;23.280;2024-03-25T00:55:34;2.00;;;0.60;;
76409;SDS011;65238;42.662;23.280;2024-03-25T00:58:01;1.65;;;0.20;;
76409;SDS011;65238;42.662;23.280;2024-03-25T01:00:27;0.40;;;0.20;;
76409;SDS011;65238;42.662;23.280;2024-03-25T01:02:52;0.73;;;0.30;;
76409;SDS011;65238;42.662;23.280;2024-03-25T01:05:18;0.57;;;0.30;;
76409;SDS011;65238;42.662;23.280;2024-03-25T01:07:43;0.57;;;0.30;;
76409;SDS011;65238;42.662;23.280;2024-03-25T01:10:09;0.25;;;0.13;;
76409;SDS011;65238;42.662;23.280;2024-03-25T01:12:34;0.75;;;0.30;;
76409;SDS011;65238;42.662;23.280;2024-03-25T01:15:00;0.93;;;0.30;;
76409;SDS011;65238;42.662;23.280;2024-03-25T01:17:27;0.50;;;0.30;;
76409;SDS011;65238;42.662;23.280;2024-03-25T01:19:52;0.85;;;0.35;;
76409;SDS011;65238;42.662;23.280;2024-03-25T01:22:18;0.35;;;0.30;;
76409;SDS011;65238;42.662;23.280;2024-03-25T01:24:43;1.10;;;0.40;;
76409;SDS011;65238;42.662;23.280;2024-03-25T01:27:09;0.15;;;0.13;;
76409;SDS011;65238;42.662;23.280;2024-03-25T01:29:34;0.50;;;0.30;;
76409;SDS011;65238;42.662;23.280;2024-03-25T01:31:59;0.20;;;0.20;;
76409;SDS011;65238;42.662;23.280;2024-03-25T01:34:25;0.30;;;0.20;;
76409;SDS011;65238;42.662;23.280;2024-03-25T01:36:51;0.70;;;0.38;;
76409;SDS011;65238;42.662;23.280;2024-03-25T01:39:17;0.40;;;0.30;;
76409;SDS011;65238;42.662;23.280;2024-03-25T01:41:43;0.98;;;0.40;;
76409;SDS011;65238;42.662;23.280;2024-03-25T01:44:08;0.30;;;0.20;;
76409;SDS011;65238;42.662;23.280;2024-03-25T01:46:34;2.17;;;0.30;;
76409;SDS011;65238;42.662;23.280;2024-03-25T01:49:00;0.32;;;0.20;;
76409;SDS011;65238;42.662;23.280;2024-03-25T01:51:25;0.65;;;0.40;;
76409;SDS011;65238;42.662;23.280;2024-03-25T01:53:51;1.13;;;0.20;;
76409;SDS011;65238;42.662;23.280;2024-03-25T01:56:17;0.30;;;0.20;;
76409;SDS011;65238;42.662;23.280;2024-03-25T01:58:43;1.00;;;0.30;;
76409;SDS011;65238;42.662;23.280;2024-03-25T02:01:09;0.20;;;0.20;;
76409;SDS011;65238;42.662;23.280;2024-03-25T02:03:38;2.85;;;0.20;;
76409;SDS011;65238;42.662;23.280;2024-03-25T02:06:06;0.70;;;0.30;;
76409;SDS011;65238;42.662;23.280;2024-03-25T02:08:33;0.80;;;0.38;;
76409;SDS011;65238;42.662;23.280;2024-03-25T02:10:59;0.63;;;0.30;;
76409;SDS011;65238;42.662;23.280;2024-03-25T02:13:24;0.75;;;0.30;;
76409;SDS011;65238;42.662;23.280;2024-03-25T02:15:50;0.20;;;0.10;;
76409;SDS011;65238;42.662;23.280;2024-03-25T02:18:16;0.50;;;0.40;;
76409;SDS011;65238;42.662;23.280;2024-03-25T02:20:42;0.22;;;0.10;;
76409;SDS011;65238;42.662;23.280;2024-03-25T02:23:08;0.65;;;0.20;;
76409;SDS011;65238;42.662;23.280;2024-03-25T02:25:35;0.45;;;0.20;;
76409;SDS011;65238;42.662;23.280;2024-03-25T02:28:03;0.43;;;0.20;;
76409;SDS011;65238;42.662;23.280;2024-03-25T02:30:29;0.22;;;0.20;;
76409;SDS011;65238;42.662;23.280;2024-03-25T02:32:54;0.40;;;0.20;;
76409;SDS011;65238;42.662;23.280;2024-03-25T02:35:20;0.45;;;0.25;;
76409;SDS011;65238;42.662;23.280;2024-03-25T02:37:46;0.30;;;0.25;;
76409;SDS011;65238;42.662;23.280;2024-03-25T02:40:11;1.30;;;0.30;;
76409;SDS011;65238;42.662;23.280;2024-03-25T02:42:37;0.03;;;0.03;;
76409;SDS011;65238;42.662;23.280;2024-03-25T02:45:05;0.10;;;0.10;;
76409;SDS011;65238;42.662;23.280;2024-03-25T02:47:30;0.38;;;0.20;;
76409;SDS011;65238;42.662;23.280;2024-03-25T02:49:56;0.08;;;0.08;;
76409;SDS011;65238;42.662;23.280;2024-03-25T02:52:21;1.25;;;0.40;;
76409;SDS011;65238;42.662;23.280;2024-03-25T02:54:47;0.25;;;0.15;;
76409;SDS011;65238;42.662;23.280;2024-03-25T02:57:12;0.50;;;0.20;;
76409;SDS011;65238;42.662;23.280;2024-03-25T02:59:38;0.17;;;0.10;;
76409;SDS011;65238;42.662;23.280;2024-03-25T03:02:03;0.28;;;0.20;;
76409;SDS011;65238;42.662;23.280;2024-03-25T03:04:28;0.40;;;0.30;;
76409;SDS011;65238;42.662;23.280;2024-03-25T03:06:54;0.20;;;0.15;;
76409;SDS011;65238;42.662;23.280;2024-03-25T03:09:19;0.63;;;0.30;;
76409;SDS011;65238;42.662;23.280;2024-03-25T03:11:45;0.43;;;0.40;;
76409;SDS011;65238;42.662;23.280;2024-03-25T03:14:10;0.30;;;0.20;;
76409;SDS011;65238;42.662;23.280;2024-03-25T03:16:36;0.52;;;0.40;;
76409;SDS011;65238;42.662;23.280;2024-03-25T03:19:01;0.60;;;0.50;;
76409;SDS011;65238;42.662;23.280;2024-03-25T03:21:27;0.52;;;0.52;;
76409;SDS011;65238;42.662;23.280;2024-03-25T03:23:52;0.80;;;0.50;;
76409;SDS011;65238;42.662;23.280;2024-03-25T03:26:18;1.65;;;0.63;;
76409;SDS011;65238;42.662;23.280;2024-03-25T03:28:44;0.70;;;0.50;;
76409;SDS011;65238;42.662;23.280;2024-03-25T03:31:09;0.98;;;0.73;;
76409;SDS011;65238;42.662;23.280;2024-03-25T03:33:35;1.45;;;0.70;;
76409;SDS011;65238;42.662;23.280;2024-03-25T03:36:00;1.67;;;1.20;;
76409;SDS011;65238;42.662;23.280;2024-03-25T03:38:26;1.63;;;0.93;;
76409;SDS011;65238;42.662;23.280;2024-03-25T03:41:01;1.63;;;1.35;;
76409;SDS011;65238;42.662;23.280;2024-03-25T03:43:27;2.22;;;1.25;;
76409;SDS011;65238;42.662;23.280;2024-03-25T03:45:52;1.85;;;1.20;;
76409;SDS011;65238;42.662;23.280;2024-03-25T03:48:18;5.13;;;1.65;;
76409;SDS011;65238;42.662;23.280;2024-03-25T03:50:44;4.72;;;2.10;;
76409;SDS011;65238;42.662;23.280;2024-03-25T03:53:09;2.95;;;1.80;;
76409;SDS011;65238;42.662;23.280;2024-03-25T03:55:35;2.78;;;1.60;;
76409;SDS011;65238;42.662;23.280;2024-03-25T03:58:01;3.03;;;1.65;;
76409;SDS011;65238;42.662;23.280;2024-03-25T04:00:26;2.75;;;1.75;;
76409;SDS011;65238;42.662;23.280;2024-03-25T04:02:52;3.00;;;1.85;;
76409;SDS011;65238;42.662;23.280;2024-03-25T04:05:17;2.72;;;1.77;;
76409;SDS011;65238;42.662;23.280;2024-03-25T04:07:43;2.85;;;1.80;;
76409;SDS011;65238;42.662;23.280;2024-03-25T04:10:08;3.65;;;1.85;;
76409;SDS011;65238;42.662;23.280;2024-03-25T04:12:34;6.63;;;2.50;;
76409;SDS011;65238;42.662;23.280;2024-03-25T04:15:00;5.68;;;2.50;;
76409;SDS011;65238;42.662;23.280;2024-03-25T04:17:26;5.03;;;2.50;;
76409;SDS011;65238;42.662;23.280;2024-03-25T04:19:51;3.97;;;2.33;;
76409;SDS011;65238;42.662;23.280;2024-03-25T04:22:17;5.30;;;3.08;;
76409;SDS011;65238;42.662;23.280;2024-03-25T04:24:43;6.03;;;3.15;;
76409;SDS011;65238;42.662;23.280;2024-03-25T04:27:08;5.47;;;3.15;;
76409;SDS011;65238;42.662;23.280;2024-03-25T04:29:34;5.60;;;3.33;;
76409;SDS011;65238;42.662;23.280;2024-03-25T04:31:59;6.45;;;3.47;;
76409;SDS011;65238;42.662;23.280;2024-03-25T04:34:25;7.90;;;4.20;;
76409;SDS011;65238;42.662;23.280;2024-03-25T04:36:50;8.27;;;4.68;;
76409;SDS011;65238;42.662;23.280;2024-03-25T04:39:15;9.02;;;4.50;;
76409;SDS011;65238;42.662;23.280;2024-03-25T04:41:41;9.82;;;5.15;;
76409;SDS011;65238;42.662;23.280;2024-03-25T04:44:06;14.70;;;6.10;;
76409;SDS011;65238;42.662;23.280;2024-03-25T04:46:32;9.88;;;4.93;;
76409;SDS011;65238;42.662;23.280;2024-03-25T04:48:57;14.80;;;5.97;;
76409;SDS011;65238;42.662;23.280;2024-03-25T04:51:23;10.63;;;5.63;;
76409;SDS011;65238;42.662;23.280;2024-03-25T04:53:49;10.40;;;6.00;;
76409;SDS011;65238;42.662;23.280;2024-03-25T04:56:14;8.43;;;5.32;;
76409;SDS011;65238;42.662;23.280;2024-03-25T04:58:40;11.43;;;6.20;;
76409;SDS011;65238;42.662;23.280;2024-03-25T05:01:05;11.38;;;5.65;;
76409;SDS011;65238;42.662;23.280;2024-03-25T05:03:31;12.80;;;6.38;;
76409;SDS011;65238;42.662;23.280;2024-03-25T05:05:56;13.82;;;6.60;;
76409;SDS011;65238;42.662;23.280;2024-03-25T05:08:22;12.07;;;6.95;;
76409;SDS011;65238;42.662;23.280;2024-03-25T05:10:47;13.52;;;7.03;;
76409;SDS011;65238;42.662;23.280;2024-03-25T05:13:12;18.45;;;8.70;;
76409;SDS011;65238;42.662;23.280;2024-03-25T05:15:38;12.25;;;7.13;;
76409;SDS011;65238;42.662;23.280;2024-03-25T05:18:03;12.85;;;6.90;;
76409;SDS011;65238;42.662;23.280;2024-03-25T05:20:29;12.93;;;7.38;;
76409;SDS011;65238;42.662;23.280;2024-03-25T05:22:55;10.93;;;6.28;;
76409;SDS011;65238;42.662;23.280;2024-03-25T05:25:21;15.88;;;7.00;;
76409;SDS011;65238;42.662;23.280;2024-03-25T05:27:49;14.07;;;6.45;;
76409;SDS011;65238;42.662;23.280;2024-03-25T05:30:15;11.15;;;6.95;;
76409;SDS011;65238;42.662;23.280;2024-03-25T05:32:40;10.98;;;6.35;;
76409;SDS011;65238;42.662;23.280;2024-03-25T05:35:06;11.55;;;6.72;;
76409;SDS011;65238;42.662;23.280;2024-03-25T05:37:32;13.80;;;6.80;;
76409;SDS011;65238;42.662;23.280;2024-03-25T05:39:59;11.27;;;6.60;;
76409;SDS011;65238;42.662;23.280;2024-03-25T05:42:24;10.23;;;6.28;;
76409;SDS011;65238;42.662;23.280;2024-03-25T05:44:49;10.20;;;6.45;;
76409;SDS011;65238;42.662;23.280;2024-03-25T05:47:15;13.10;;;6.57;;
76409;SDS011;65238;42.662;23.280;2024-03-25T05:49:40;13.10;;;7.03;;
76409;SDS011;65238;42.662;23.280;2024-03-25T05:52:06;14.05;;;7.40;;
76409;SDS011;65238;42.662;23.280;2024-03-25T05:54:32;11.77;;;7.28;;
76409;SDS011;65238;42.662;23.280;2024-03-25T05:56:57;12.68;;;7.15;;
76409;SDS011;65238;42.662;23.280;2024-03-25T05:59:22;13.90;;;7.32;;
76409;SDS011;65238;42.662;23.280;2024-03-25T06:01:48;11.05;;;6.85;;
76409;SDS011;65238;42.662;23.280;2024-03-25T06:04:13;11.48;;;7.50;;
76409;SDS011;65238;42.662;23.280;2024-03-25T06:06:39;12.93;;;7.03;;
76409;SDS011;65238;42.662;23.280;2024-03-25T06:09:04;12.32;;;7.47;;
76409;SDS011;65238;42.662;23.280;2024-03-25T06:11:30;12.18;;;7.40;;
76409;SDS011;65238;42.662;23.280;2024-03-25T06:13:56;11.55;;;7.30;;
76409;SDS011;65238;42.662;23.280;2024-03-25T06:16:21;14.98;;;8.32;;
76409;SDS011;65238;42.662;23.280;2024-03-25T06:18:47;13.15;;;7.35;;
76409;SDS011;65238;42.662;23.280;2024-03-25T06:21:12;14.65;;;8.15;;
76409;SDS011;65238;42.662;23.280;2024-03-25T06:23:38;11.20;;;7.18;;
76409;SDS011;65238;42.662;23.280;2024-03-25T06:26:03;14.10;;;8.00;;
76409;SDS011;65238;42.662;23.280;2024-03-25T06:28:29;13.80;;;7.55;;
76409;SDS011;65238;42.662;23.280;2024-03-25T06:30:54;14.70;;;7.85;;
76409;SDS011;65238;42.662;23.280;2024-03-25T06:33:38;12.35;;;7.22;;
76409;SDS011;65238;42.662;23.280;2024-03-25T06:36:22;11.48;;;6.90;;
76409;SDS011;65238;42.662;23.280;2024-03-25T06:38:48;11.25;;;7.35;;
76409;SDS011;65238;42.662;23.280;2024-03-25T06:41:13;12.35;;;7.47;;
76409;SDS011;65238;42.662;23.280;2024-03-25T06:43:39;13.85;;;7.85;;
76409;SDS011;65238;42.662;23.280;2024-03-25T06:46:05;13.05;;;7.45;;
76409;SDS011;65238;42.662;23.280;2024-03-25T06:48:31;12.40;;;7.65;;
76409;SDS011;65238;42.662;23.280;2024-03-25T06:50:57;11.35;;;7.40;;
76409;SDS011;65238;42.662;23.280;2024-03-25T06:53:24;13.23;;;7.65;;
76409;SDS011;65238;42.662;23.280;2024-03-25T06:55:53;13.82;;;6.93;;
76409;SDS011;65238;42.662;23.280;2024-03-25T06:58:25;10.80;;;6.63;;
76409;SDS011;65238;42.662;23.280;2024-03-25T07:00:51;12.10;;;7.03;;
76409;SDS011;65238;42.662;23.280;2024-03-25T07:03:17;12.30;;;7.78;;
76409;SDS011;65238;42.662;23.280;2024-03-25T07:05:44;9.77;;;6.35;;
76409;SDS011;65238;42.662;23.280;2024-03-25T07:08:13;9.88;;;6.75;;
76409;SDS011;65238;42.662;23.280;2024-03-25T07:10:42;11.88;;;6.85;;
76409;SDS011;65238;42.662;23.280;2024-03-25T07:13:08;12.05;;;7.55;;
76409;SDS011;65238;42.662;23.280;2024-03-25T07:15:33;10.18;;;6.63;;
76409;SDS011;65238;42.662;23.280;2024-03-25T07:17:59;11.75;;;7.38;;
76409;SDS011;65238;42.662;23.280;2024-03-25T07:20:25;14.10;;;8.77;;
76409;SDS011;65238;42.662;23.280;2024-03-25T07:22:51;14.82;;;7.80;;
76409;SDS011;65238;42.662;23.280;2024-03-25T07:25:20;13.48;;;7.90;;
76409;SDS011;65238;42.662;23.280;2024-03-25T07:27:45;13.70;;;7.47;;
76409;SDS011;65238;42.662;23.280;2024-03-25T07:30:10;15.00;;;8.48;;
76409;SDS011;65238;42.662;23.280;2024-03-25T07:32:36;13.52;;;7.07;;
76409;SDS011;65238;42.662;23.280;2024-03-25T07:35:02;9.77;;;7.10;;
76409;SDS011;65238;42.662;23.280;2024-03-25T07:37:29;11.45;;;7.18;;
76409;SDS011;65238;42.662;23.280;2024-03-25T07:39:55;11.82;;;7.10;;
76409;SDS011;65238;42.662;23.280;2024-03-25T07:42:21;10.20;;;6.53;;
76409;SDS011;65238;42.662;23.280;2024-03-25T07:44:46;11.85;;;7.20;;
76409;SDS011;65238;42.662;23.280;2024-03-25T07:47:11;12.45;;;6.72;;
76409;SDS011;65238;42.662;23.280;2024-03-25T07:49:38;11.65;;;7.10;;
76409;SDS011;65238;42.662;23.280;2024-03-25T07:52:05;9.88;;;6.60;;
76409;SDS011;65238;42.662;23.280;2024-03-25T07:54:31;8.73;;;6.40;;
76409;SDS011;65238;42.662;23.280;2024-03-25T07:56:56;11.25;;;6.32;;
76409;SDS011;65238;42.662;23.280;2024-03-25T07:59:21;7.97;;;5.88;;
76409;SDS011;65238;42.662;23.280;2024-03-25T08:01:47;10.90;;;6.28;;
76409;SDS011;65238;42.662;23.280;2024-03-25T08:04:12;8.48;;;5.85;;
76409;SDS011;65238;42.662;23.280;2024-03-25T08:06:38;8.30;;;6.03;;
76409;SDS011;65238;42.662;23.280;2024-03-25T08:09:03;9.52;;;6.07;;
76409;SDS011;65238;42.662;23.280;2024-03-25T08:11:32;10.00;;;5.80;;
76409;SDS011;65238;42.662;23.280;2024-03-25T08:13:58;6.60;;;4.97;;
76409;SDS011;65238;42.662;23.280;2024-03-25T08:16:23;8.82;;;6.03;;
76409;SDS011;65238;42.662;23.280;2024-03-25T08:18:49;8.10;;;5.53;;
76409;SDS011;65238;42.662;23.280;2024-03-25T08:21:15;10.13;;;6.45;;
76409;SDS011;65238;42.662;23.280;2024-03-25T08:23:41;8.65;;;6.20;;
76409;SDS011;65238;42.662;23.280;2024-03-25T08:26:06;8.23;;;5.95;;
76409;SDS011;65238;42.662;23.280;2024-03-25T08:28:33;7.85;;;5.28;;
76409;SDS011;65238;42.662;23.280;2024-03-25T08:30:59;10.13;;;5.57;;
76409;SDS011;65238;42.662;23.280;2024-03-25T08:33:24;10.90;;;6.05;;
76409;SDS011;65238;42.662;23.280;2024-03-25T08:35:49;9.88;;;6.07;;
76409;SDS011;65238;42.662;23.280;2024-03-25T08:38:15;9.27;;;5.72;;
76409;SDS011;65238;42.662;23.280;2024-03-25T08:40:41;7.10;;;5.03;;
76409;SDS011;65238;42.662;23.280;2024-03-25T08:43:06;6.25;;;4.80;;
76409;SDS011;65238;42.662;23.280;2024-03-25T08:45:32;9.15;;;5.95;;
76409;SDS011;65238;42.662;23.280;2024-03-25T08:47:57;6.90;;;5.30;;
76409;SDS011;65238;42.662;23.280;2024-03-25T08:50:23;8.00;;;5.53;;
76409;SDS011;65238;42.662;23.280;2024-03-25T08:52:48;8.27;;;5.30;;
76409;SDS011;65238;42.662;23.280;2024-03-25T08:55:14;7.60;;;5.18;;
76409;SDS011;65238;42.662;23.280;2024-03-25T08:57:39;7.80;;;5.32;;
76409;SDS011;65238;42.662;23.280;2024-03-25T09:00:05;8.25;;;5.72;;
76409;SDS011;65238;42.662;23.280;2024-03-25T09:02:35;6.30;;;4.85;;
76409;SDS011;65238;42.662;23.280;2024-03-25T09:05:04;8.45;;;5.13;;
76409;SDS011;65238;42.662;23.280;2024-03-25T09:07:33;6.93;;;5.18;;
76409;SDS011;65238;42.662;23.280;2024-03-25T09:09:58;7.45;;;5.40;;
76409;SDS011;65238;42.662;23.280;2024-03-25T09:12:42;8.52;;;5.57;;
76409;SDS011;65238;42.662;23.280;2024-03-25T09:15:08;10.65;;;5.78;;
76409;SDS011;65238;42.662;23.280;2024-03-25T09:17:35;7.68;;;5.57;;
76409;SDS011;65238;42.662;23.280;2024-03-25T09:20:01;11.35;;;5.30;;
76409;SDS011;65238;42.662;23.280;2024-03-25T09:22:29;11.18;;;5.85;;
76409;SDS011;65238;42.662;23.280;2024-03-25T09:24:57;11.43;;;6.03;;
76409;SDS011;65238;42.662;23.280;2024-03-25T09:27:22;10.45;;;6.18;;
76409;SDS011;65238;42.662;23.280;2024-03-25T09:29:48;8.73;;;5.72;;
76409;SDS011;65238;42.662;23.280;2024-03-25T09:32:13;8.15;;;5.68;;
76409;SDS011;65238;42.662;23.280;2024-03-25T09:34:39;7.72;;;5.80;;
76409;SDS011;65238;42.662;23.280;2024-03-25T09:37:04;8.27;;;6.07;;
76409;SDS011;65238;42.662;23.280;2024-03-25T09:39:29;9.75;;;6.18;;
76409;SDS011;65238;42.662;23.280;2024-03-25T09:41:55;8.98;;;5.88;;
76409;SDS011;65238;42.662;23.280;2024-03-25T09:44:24;6.40;;;4.68;;
76409;SDS011;65238;42.662;23.280;2024-03-25T09:46:50;8.20;;;5.68;;
76409;SDS011;65238;42.662;23.280;2024-03-25T09:49:16;7.70;;;4.95;;
76409;SDS011;65238;42.662;23.280;2024-03-25T09:51:42;8.95;;;6.05;;
76409;SDS011;65238;42.662;23.280;2024-03-25T09:54:08;9.20;;;6.55;;
76409;SDS011;65238;42.662;23.280;2024-03-25T09:56:33;9.23;;;5.70;;
76409;SDS011;65238;42.662;23.280;2024-03-25T09:58:59;9.07;;;6.07;;
76409;SDS011;65238;42.662;23.280;2024-03-25T10:01:24;10.57;;;6.20;;
76409;SDS011;65238;42.662;23.280;2024-03-25T10:03:50;10.35;;;5.55;;
76409;SDS011;65238;42.662;23.280;2024-03-25T10:06:16;9.18;;;5.43;;
76409;SDS011;65238;42.662;23.280;2024-03-25T10:08:41;7.60;;;5.50;;
76409;SDS011;65238;42.662;23.280;2024-03-25T10:11:07;6.40;;;4.50;;
76409;SDS011;65238;42.662;23.280;2024-03-25T10:13:32;8.45;;;4.97;;
76409;SDS011;65238;42.662;23.280;2024-03-25T10:15:57;6.88;;;4.57;;
76409;SDS011;65238;42.662;23.280;2024-03-25T10:18:23;5.60;;;3.88;;
76409;SDS011;65238;42.662;23.280;2024-03-25T10:20:49;7.10;;;4.60;;
76409;SDS011;65238;42.662;23.280;2024-03-25T10:23:15;5.13;;;4.05;;
76409;SDS011;65238;42.662;23.280;2024-03-25T10:25:44;4.88;;;3.92;;
76409;SDS011;65238;42.662;23.280;2024-03-25T10:28:13;6.20;;;4.30;;
76409;SDS011;65238;42.662;23.280;2024-03-25T10:30:38;5.07;;;4.00;;
76409;SDS011;65238;42.662;23.280;2024-03-25T10:33:06;5.38;;;4.00;;
76409;SDS011;65238;42.662;23.280;2024-03-25T10:35:32;32.92;;;11.50;;
76409;SDS011;65238;42.662;23.280;2024-03-25T10:38:08;10.50;;;5.72;;
76409;SDS011;65238;42.662;23.280;2024-03-25T10:40:38;6.50;;;4.05;;
76409;SDS011;65238;42.662;23.280;2024-03-25T10:43:09;8.13;;;4.60;;
76409;SDS011;65238;42.662;23.280;2024-03-25T10:45:40;7.03;;;4.45;;
76409;SDS011;65238;42.662;23.280;2024-03-25T10:50:35;3.80;;;3.40;;
76409;SDS011;65238;42.662;23.280;2024-03-25T10:53:02;5.63;;;3.88;;
76409;SDS011;65238;42.662;23.280;2024-03-25T10:55:29;10.57;;;4.38;;
76409;SDS011;65238;42.662;23.280;2024-03-25T10:57:56;5.35;;;3.20;;
76409;SDS011;65238;42.662;23.280;2024-03-25T11:00:22;6.72;;;3.80;;
76409;SDS011;65238;42.662;23.280;2024-03-25T11:02:48;4.68;;;3.63;;
76409;SDS011;65238;42.662;23.280;2024-03-25T11:05:14;7.57;;;3.85;;
76409;SDS011;65238;42.662;23.280;2024-03-25T11:07:40;4.97;;;3.55;;
76409;SDS011;65238;42.662;23.280;2024-03-25T11:10:07;5.32;;;3.95;;
76409;SDS011;65238;42.662;23.280;2024-03-25T11:12:36;5.85;;;4.00;;
76409;SDS011;65238;42.662;23.280;2024-03-25T11:15:05;6.30;;;3.80;;
76409;SDS011;65238;42.662;23.280;2024-03-25T11:17:34;6.65;;;3.80;;
76409;SDS011;65238;42.662;23.280;2024-03-25T11:20:09;5.72;;;3.25;;
76409;SDS011;65238;42.662;23.280;2024-03-25T11:22:36;3.90;;;3.10;;
76409;SDS011;65238;42.662;23.280;2024-03-25T11:25:05;3.80;;;3.38;;
76409;SDS011;65238;42.662;23.280;2024-03-25T11:27:33;5.38;;;3.08;;
76409;SDS011;65238;42.662;23.280;2024-03-25T11:30:00;6.25;;;3.63;;
76409;SDS011;65238;42.662;23.280;2024-03-25T11:32:26;6.10;;;4.43;;
76409;SDS011;65238;42.662;23.280;2024-03-25T11:34:52;5.63;;;4.10;;
76409;SDS011;65238;42.662;23.280;2024-03-25T11:37:17;4.38;;;3.58;;
76409;SDS011;65238;42.662;23.280;2024-03-25T11:39:43;5.53;;;3.33;;
76409;SDS011;65238;42.662;23.280;2024-03-25T11:42:08;6.28;;;3.00;;
76409;SDS011;65238;42.662;23.280;2024-03-25T11:44:37;4.95;;;3.40;;
76409;SDS011;65238;42.662;23.280;2024-03-25T11:47:05;3.73;;;3.00;;
76409;SDS011;65238;42.662;23.280;2024-03-25T11:49:36;5.65;;;3.60;;
76409;SDS011;65238;42.662;23.280;2024-03-25T11:52:03;6.57;;;3.70;;
76409;SDS011;65238;42.662;23.280;2024-03-25T11:54:31;6.60;;;3.50;;
76409;SDS011;65238;42.662;23.280;2024-03-25T11:56:57;4.50;;;3.60;;
76409;SDS011;65238;42.662;23.280;2024-03-25T11:59:22;6.55;;;3.15;;
76409;SDS011;65238;42.662;23.280;2024-03-25T12:01:47;4.85;;;2.95;;
76409;SDS011;65238;42.662;23.280;2024-03-25T12:04:17;3.70;;;2.90;;
76409;SDS011;65238;42.662;23.280;2024-03-25T12:06:43;4.30;;;2.83;;
76409;SDS011;65238;42.662;23.280;2024-03-25T12:09:10;5.00;;;3.00;;
76409;SDS011;65238;42.662;23.280;2024-03-25T12:11:56;3.30;;;2.47;;
76409;SDS011;65238;42.662;23.280;2024-03-25T12:14:23;2.58;;;2.22;;
76409;SDS011;65238;42.662;23.280;2024-03-25T12:16:49;3.70;;;2.03;;
76409;SDS011;65238;42.662;23.280;2024-03-25T12:19:15;3.63;;;2.53;;
76409;SDS011;65238;42.662;23.280;2024-03-25T12:21:43;3.38;;;2.72;;
76409;SDS011;65238;42.662;23.280;2024-03-25T12:24:08;3.85;;;2.72;;
76409;SDS011;65238;42.662;23.280;2024-03-25T12:26:34;4.10;;;2.60;;
76409;SDS011;65238;42.662;23.280;2024-03-25T12:29:00;5.63;;;3.65;;
76409;SDS011;65238;42.662;23.280;2024-03-25T12:31:28;6.68;;;3.60;;
76409;SDS011;65238;42.662;23.280;2024-03-25T12:33:53;6.85;;;3.70;;
76409;SDS011;65238;42.662;23.280;2024-03-25T12:36:20;8.23;;;4.40;;
76409;SDS011;65238;42.662;23.280;2024-03-25T12:38:53;6.07;;;3.60;;
76409;SDS011;65238;42.662;23.280;2024-03-25T12:41:21;8.85;;;5.03;;
76409;SDS011;65238;42.662;23.280;2024-03-25T12:43:47;4.88;;;3.33;;
76409;SDS011;65238;42.662;23.280;2024-03-25T12:46:14;4.97;;;2.95;;
76409;SDS011;65238;42.662;23.280;2024-03-25T12:48:39;4.07;;;3.03;;
76409;SDS011;65238;42.662;23.280;2024-03-25T12:51:06;3.00;;;2.50;;
76409;SDS011;65238;42.662;23.280;2024-03-25T12:53:31;5.15;;;3.75;;
76409;SDS011;65238;42.662;23.280;2024-03-25T12:55:57;4.65;;;2.60;;
76409;SDS011;65238;42.662;23.280;2024-03-25T12:58:22;3.83;;;2.63;;
76409;SDS011;65238;42.662;23.280;2024-03-25T13:00:47;4.40;;;2.78;;
76409;SDS011;65238;42.662;23.280;2024-03-25T13:03:13;3.95;;;2.90;;
76409;SDS011;65238;42.662;23.280;2024-03-25T13:05:40;4.22;;;2.55;;
76409;SDS011;65238;42.662;23.280;2024-03-25T13:08:08;3.10;;;2.72;;
76409;SDS011;65238;42.662;23.280;2024-03-25T13:10:33;4.43;;;2.72;;
76409;SDS011;65238;42.662;23.280;2024-03-25T13:12:59;3.97;;;2.72;;
76409;SDS011;65238;42.662;23.280;2024-03-25T13:15:25;5.22;;;3.00;;
76409;SDS011;65238;42.662;23.280;2024-03-25T13:17:50;4.97;;;3.30;;
76409;SDS011;65238;42.662;23.280;2024-03-25T13:20:16;4.30;;;3.35;;
76409;SDS011;65238;42.662;23.280;2024-03-25T13:22:41;4.95;;;3.15;;
76409;SDS011;65238;42.662;23.280;2024-03-25T13:25:09;4.75;;;3.03;;
76409;SDS011;65238;42.662;23.280;2024-03-25T13:27:36;7.07;;;3.75;;
76409;SDS011;65238;42.662;23.280;2024-03-25T13:30:01;5.03;;;2.90;;
76409;SDS011;65238;42.662;23.280;2024-03-25T13:32:27;4.35;;;2.90;;
76409;SDS011;65238;42.662;23.280;2024-03-25T13:34:52;4.35;;;2.63;;
76409;SDS011;65238;42.662;23.280;2024-03-25T13:37:18;5.03;;;2.30;;
76409;SDS011;65238;42.662;23.280;2024-03-25T13:39:43;3.47;;;2.28;;
76409;SDS011;65238;42.662;23.280;2024-03-25T13:42:08;2.85;;;2.30;;
76409;SDS011;65238;42.662;23.280;2024-03-25T13:44:34;4.60;;;2.50;;
76409;SDS011;65238;42.662;23.280;2024-03-25T13:46:59;3.88;;;2.20;;
76409;SDS011;65238;42.662;23.280;2024-03-25T13:49:24;3.40;;;2.38;;
76409;SDS011;65238;42.662;23.280;2024-03-25T13:51:56;4.15;;;3.20;;
76409;SDS011;65238;42.662;23.280;2024-03-25T13:54:23;2.90;;;2.15;;
76409;SDS011;65238;42.662;23.280;2024-03-25T13:56:49;2.30;;;1.67;;
76409;SDS011;65238;42.662;23.280;2024-03-25T13:59:15;2.67;;;1.80;;
76409;SDS011;65238;42.662;23.280;2024-03-25T14:01:40;6.05;;;1.90;;
76409;SDS011;65238;42.662;23.280;2024-03-25T14:04:06;5.13;;;1.50;;
76409;SDS011;65238;42.662;23.280;2024-03-25T14:06:31;9.30;;;1.63;;
76409;SDS011;65238;42.662;23.280;2024-03-25T14:08:58;3.22;;;1.27;;
76409;SDS011;65238;42.662;23.280;2024-03-25T14:11:24;4.22;;;1.35;;
76409;SDS011;65238;42.662;23.280;2024-03-25T14:13:50;2.63;;;1.08;;
76409;SDS011;65238;42.662;23.280;2024-03-25T14:16:15;3.63;;;1.15;;
76409;SDS011;65238;42.662;23.280;2024-03-25T14:18:40;2.88;;;1.25;;
76409;SDS011;65238;42.662;23.280;2024-03-25T14:21:06;1.48;;;1.20;;
76409;SDS011;65238;42.662;23.280;2024-03-25T14:23:32;1.83;;;1.52;;
76409;SDS011;65238;42.662;23.280;2024-03-25T14:25:57;2.45;;;1.30;;
76409;SDS011;65238;42.662;23.280;2024-03-25T14:28:23;2.85;;;1.67;;